Time;durP1;ratioP1;P1;durP2;ratioP2;P2;SDS_P1;SDS_P2;PMS_P1;PMS_P2;Temp;Humidity;BMP_temperature;BMP_pressure;BME280_temperature;BME280_humidity;BME280_pressure;Samples;Min_cycle;Max_cycle;Signal;HPM_P1;HPM_P2
2022/01/20 00:01:38;;;;;;;;;;;;;;;6.02;65.79;99463.00;1762864;80;20141;-77
2022/01/20 00:03:45;;;;;;;;;;;;;;;5.53;66.97;99451.80;1758231;80;20514;-77
2022/01/20 00:27:50;;;;;;;;;;;;;;;5.55;67.67;99411.91;1738808;82;20095;-77
2022/01/20 00:30:34;;;;;;;;;;;;;;;5.48;67.82;99405.57;1753075;81;20083;-76
2022/01/20 00:32:59;;;;;;;;;;;;;;;5.52;67.66;99408.26;1747724;81;20140;-77
2022/01/20 00:35:28;;;;;;;;;;;;;;;4.99;69.15;99402.55;1733827;81;20115;-76
2022/01/20 00:37:49;;;;;;;;;;;;;;;5.66;67.69;99405.17;1745965;81;20112;-76
2022/01/20 00:40:15;;;;;;;;;;;;;;;5.59;68.02;99397.53;1735939;81;22281;-77
2022/01/20 00:42:40;;;;;;;;;;;;;;;5.38;68.31;99392.02;1755906;80;20242;-76
2022/01/20 00:45:07;;;;;;;;;;;;;;;5.68;67.95;99392.75;1756913;81;20188;-77
2022/01/20 00:47:33;;;;;;;;;;;;;;;5.94;67.40;99380.32;1754842;81;20157;-76
2022/01/20 00:49:58;;;;;;;;;;;;;;;5.19;68.80;99384.22;1749324;81;20306;-77
2022/01/20 00:52:24;;;;;;;;;;;;;;;5.84;67.74;99365.12;1745987;81;21991;-77
2022/01/20 00:54:49;;;;;;;;;;;;;;;6.04;67.00;99368.50;1746662;81;20137;-77
2022/01/20 00:57:16;;;;;;;;;;;;;;;5.70;67.39;99364.64;1745428;81;20145;-77
2022/01/20 00:59:41;;;;;;;;;;;;;;;5.86;67.62;99363.20;1743986;81;20609;-76
2022/01/20 01:02:08;;;;;;;;;;;;;;;5.97;66.93;99364.34;1747672;81;20115;-77
2022/01/20 01:04:34;;;;;;;;;;;;;;;6.15;66.35;99359.61;1740756;81;21156;-78
2022/01/20 01:09:30;;;;;;;;;;;;;;;5.68;67.56;99339.55;1744070;81;20192;-78
2022/01/20 01:12:03;;;;;;;;;;;;;;;6.01;66.97;99340.80;1744758;81;20135;-78
2022/01/20 01:14:29;;;;;;;;;;;;;;;5.86;67.20;99323.89;1746733;81;20132;-78
2022/01/20 01:24:38;;;;;;;;;;;;;;;6.25;65.84;99318.44;1737794;80;20123;-79
2022/01/20 01:27:04;;;;;;;;;;;;;;;6.18;66.30;99315.56;1749758;80;20216;-79
2022/01/20 01:31:57;;;;;;;;;;;;;;;6.14;66.25;99312.92;1688168;81;20171;-80
2022/01/20 01:34:27;;;;;;;;;;;;;;;6.44;65.55;99308.28;1753451;80;21170;-77
2022/01/20 01:37:04;;;;;;;;;;;;;;;6.51;65.34;99299.31;1746373;81;20148;-78
2022/01/20 01:39:18;;;;;;;;;;;;;;;5.97;66.76;99300.13;1745047;81;20560;-79
2022/01/20 01:41:44;;;;;;;;;;;;;;;6.06;66.65;99286.14;1756053;81;21131;-79
2022/01/20 01:44:11;;;;;;;;;;;;;;;5.96;66.83;99282.72;1751751;81;20313;-78
2022/01/20 01:46:37;;;;;;;;;;;;;;;5.86;66.67;99285.41;1757142;81;20145;-76
2022/01/20 01:49:03;;;;;;;;;;;;;;;5.95;67.09;99275.84;1750501;80;21057;-76
2022/01/20 01:51:29;;;;;;;;;;;;;;;5.64;68.02;99274.85;1748430;80;20533;-76
2022/01/20 01:53:54;;;;;;;;;;;;;;;5.74;67.65;99257.27;1752387;81;21155;-77
2022/01/20 01:56:20;;;;;;;;;;;;;;;6.11;67.02;99252.44;1748572;81;20159;-79
2022/01/20 01:58:45;;;;;;;;;;;;;;;5.69;67.49;99258.70;1749954;81;20176;-78
2022/01/20 02:01:11;;;;;;;;;;;;;;;5.87;67.49;99251.69;1747227;81;20835;-76
2022/01/20 02:03:44;;;;;;;;;;;;;;;5.63;68.27;99243.08;1749922;81;20173;-75
2022/01/20 02:06:24;;;;;;;;;;;;;;;5.77;68.19;99230.45;1744378;80;20138;-78
2022/01/20 02:19:26;;;;;;;;;;;;;;;5.98;68.95;99211.38;1756496;81;20476;-78
2022/01/20 02:21:56;;;;;;;;;;;;;;;6.05;69.45;99195.87;1756083;81;20176;-78
2022/01/20 02:24:22;;;;;;;;;;;;;;;6.10;69.42;99198.36;1746252;81;20183;-78
2022/01/20 02:26:47;;;;;;;;;;;;;;;6.16;69.50;99207.92;1746395;81;20130;-77
2022/01/20 02:29:13;;;;;;;;;;;;;;;5.44;71.96;99188.18;1751974;81;20154;-78
2022/01/20 02:31:39;;;;;;;;;;;;;;;5.29;72.98;99191.30;1753501;81;21119;-77
2022/01/20 02:34:07;;;;;;;;;;;;;;;5.83;71.78;99181.40;1744492;81;20193;-78
2022/01/20 02:36:35;;;;;;;;;;;;;;;5.62;73.03;99173.32;1740785;80;20176;-78
2022/01/20 02:39:08;;;;;;;;;;;;;;;6.03;71.40;99180.30;1749933;81;20156;-78
2022/01/20 02:46:55;;;;;;;;;;;;;;;5.98;71.98;99158.12;1744477;81;20485;-77
2022/01/20 02:49:20;;;;;;;;;;;;;;;6.29;71.11;99150.19;1751253;81;20170;-78
2022/01/20 02:51:48;;;;;;;;;;;;;;;5.93;72.23;99150.68;1742904;81;20124;-78
2022/01/20 02:54:14;;;;;;;;;;;;;;;6.18;72.36;99153.53;1747500;81;20191;-77
2022/01/20 02:56:40;;;;;;;;;;;;;;;6.16;72.96;99138.45;1748379;80;21067;-78
2022/01/20 02:59:05;;;;;;;;;;;;;;;6.44;72.02;99130.77;1743097;80;20194;-77
2022/01/20 03:01:32;;;;;;;;;;;;;;;5.83;73.75;99153.89;1744785;81;20156;-78
2022/01/20 03:03:58;;;;;;;;;;;;;;;5.93;74.28;99116.62;1745547;81;20192;-78
2022/01/20 03:06:24;;;;;;;;;;;;;;;5.31;76.25;99123.09;1741245;81;20184;-77
2022/01/20 03:08:49;;;;;;;;;;;;;;;5.39;76.96;99110.92;1743023;80;21988;-77
2022/01/20 03:11:15;;;;;;;;;;;;;;;5.62;76.73;99107.03;1754435;81;20144;-77
2022/01/20 03:13:41;;;;;;;;;;;;;;;5.16;78.66;99111.83;1749641;80;20128;-77
2022/01/20 03:16:06;;;;;;;;;;;;;;;5.16;79.71;99096.62;1748877;80;20198;-77
2022/01/20 03:18:32;;;;;;;;;;;;;;;5.23;80.33;99100.27;1739863;81;20863;-78
2022/01/20 03:20:58;;;;;;;;;;;;;;;5.21;80.63;99095.19;1743951;80;21086;-77
2022/01/20 03:23:23;;;;;;;;;;;;;;;5.67;79.05;99091.21;1770770;80;20498;-78
2022/01/20 03:25:49;;;;;;;;;;;;;;;5.61;79.41;99086.58;1763666;80;20223;-78
2022/01/20 03:28:14;;;;;;;;;;;;;;;5.26;81.03;99086.89;1764645;80;20611;-78
2022/01/20 03:30:40;;;;;;;;;;;;;;;5.54;80.14;99076.36;1761350;80;20231;-78
2022/01/20 03:33:05;;;;;;;;;;;;;;;5.45;81.09;99070.21;1756154;80;21133;-77
2022/01/20 03:35:31;;;;;;;;;;;;;;;5.04;82.39;99075.87;1770771;80;20931;-78
2022/01/20 03:37:58;;;;;;;;;;;;;;;5.03;82.47;99074.24;1766920;80;20206;-77
2022/01/20 03:40:23;;;;;;;;;;;;;;;5.03;83.14;99073.40;1771525;80;21130;-77
2022/01/20 03:42:49;;;;;;;;;;;;;;;5.13;83.66;99070.74;1765242;80;20146;-78
2022/01/20 03:45:15;;;;;;;;;;;;;;;5.36;82.84;99066.71;1767745;80;21079;-78
2022/01/20 03:47:41;;;;;;;;;;;;;;;5.44;83.42;99067.73;1765211;80;20574;-77
2022/01/20 03:50:59;;;;;;;;;;;;;;;5.61;82.80;99070.02;1768145;80;20602;-77
2022/01/20 03:52:36;;;;;;;;;;;;;;;5.61;83.17;99064.78;1760385;80;20162;-78
2022/01/20 03:55:02;;;;;;;;;;;;;;;5.43;84.29;99048.60;1768461;80;20282;-78
2022/01/20 03:57:28;;;;;;;;;;;;;;;5.84;83.05;99062.51;1769759;80;21195;-77
2022/01/20 03:59:54;;;;;;;;;;;;;;;5.39;84.43;99047.24;1766217;80;20743;-78
2022/01/20 04:02:19;;;;;;;;;;;;;;;5.94;82.77;99052.77;1761477;80;20163;-78
2022/01/20 04:04:45;;;;;;;;;;;;;;;5.49;83.86;99060.28;1748680;80;20687;-78
2022/01/20 04:07:11;;;;;;;;;;;;;;;5.40;85.14;99044.48;1760451;80;20138;-79
2022/01/20 04:09:36;;;;;;;;;;;;;;;5.17;86.12;99053.75;1769368;80;21189;-78
2022/01/20 04:12:02;;;;;;;;;;;;;;;5.54;84.62;99050.16;1761171;80;20324;-79
2022/01/20 04:14:31;;;;;;;;;;;;;;;5.56;84.95;99060.00;1776886;80;20228;-78
2022/01/20 04:17:04;;;;;;;;;;;;;;;5.53;84.58;99041.50;1767644;80;20601;-78
2022/01/20 04:19:30;;;;;;;;;;;;;;;5.78;83.75;99036.45;1756555;80;20518;-77
2022/01/20 04:21:56;;;;;;;;;;;;;;;5.16;86.79;99039.86;1757260;80;21899;-79
2022/01/20 04:24:22;;;;;;;;;;;;;;;5.32;85.81;99039.17;1760305;80;20177;-79
2022/01/20 04:26:47;;;;;;;;;;;;;;;5.19;86.13;99041.36;1756067;80;20460;-79
2022/01/20 04:29:13;;;;;;;;;;;;;;;5.51;84.78;99046.55;1764017;80;20170;-79
2022/01/20 04:31:40;;;;;;;;;;;;;;;5.03;86.95;99049.38;1765354;80;20236;-76
2022/01/20 04:34:05;;;;;;;;;;;;;;;4.98;86.82;99050.29;1757315;80;21125;-79
2022/01/20 04:36:33;;;;;;;;;;;;;;;5.11;87.18;99051.73;1755539;80;20433;-77
2022/01/20 04:39:00;;;;;;;;;;;;;;;5.29;86.61;99031.63;1765793;80;20450;-77
2022/01/20 04:41:29;;;;;;;;;;;;;;;5.40;86.22;99038.43;1756013;80;20222;-77
2022/01/20 04:43:53;;;;;;;;;;;;;;;5.33;85.79;99050.00;1764949;80;20503;-77
2022/01/20 04:47:13;;;;;;;;;;;;;;;5.33;86.38;99035.59;1750030;80;21019;-77
2022/01/20 04:49:04;;;;;;;;;;;;;;;5.30;86.17;99034.59;1730606;80;20521;-78
2022/01/20 04:57:06;;;;;;;;;;;;;;;5.01;87.96;99040.84;1762364;80;20158;-77
2022/01/20 04:59:27;;;;;;;;;;;;;;;5.28;86.69;99016.88;1762751;80;20165;-76
2022/01/20 05:01:53;;;;;;;;;;;;;;;5.42;86.20;99031.23;1759816;80;20226;-76
2022/01/20 05:04:19;;;;;;;;;;;;;;;5.31;86.93;98998.26;1763447;80;20217;-76
2022/01/20 05:06:46;;;;;;;;;;;;;;;5.51;85.98;99012.00;1758518;80;20612;-77
2022/01/20 05:09:17;;;;;;;;;;;;;;;5.55;85.70;99025.64;1762459;80;20268;-77
2022/01/20 05:11:43;;;;;;;;;;;;;;;5.66;85.61;99012.29;1756165;79;20924;-78
2022/01/20 05:14:06;;;;;;;;;;;;;;;5.46;86.60;99005.59;1760391;79;20145;-78
2022/01/20 05:16:32;;;;;;;;;;;;;;;5.53;86.05;99011.39;1754710;79;20137;-79
2022/01/20 05:18:58;;;;;;;;;;;;;;;5.52;86.61;98997.13;1757747;80;20146;-78
2022/01/20 05:21:23;;;;;;;;;;;;;;;5.32;86.90;98986.83;1751303;80;20171;-76
2022/01/20 05:23:49;;;;;;;;;;;;;;;5.57;86.45;98981.78;1756507;80;21043;-76
2022/01/20 05:26:14;;;;;;;;;;;;;;;5.94;85.17;98980.71;1756425;80;20212;-76
2022/01/20 05:28:40;;;;;;;;;;;;;;;5.61;86.09;98985.75;1761724;80;20119;-77
2022/01/20 05:31:06;;;;;;;;;;;;;;;5.36;86.99;99010.43;1754320;80;21097;-77
2022/01/20 05:33:31;;;;;;;;;;;;;;;5.61;86.44;98983.12;1759250;80;20176;-76
2022/01/20 05:35:57;;;;;;;;;;;;;;;5.52;86.32;98990.59;1750464;80;21095;-78
2022/01/20 05:38:22;;;;;;;;;;;;;;;5.67;86.02;98980.36;1750254;80;20551;-75
2022/01/20 05:40:48;;;;;;;;;;;;;;;5.85;85.89;98981.64;1751217;80;20162;-75
2022/01/20 05:43:13;;;;;;;;;;;;;;;5.73;85.51;98987.14;1753257;80;20159;-79
2022/01/20 05:45:39;;;;;;;;;;;;;;;5.80;85.36;98969.50;1764623;80;20503;-76
2022/01/20 05:48:15;;;;;;;;;;;;;;;5.72;85.24;98971.08;1751190;80;21142;-77
2022/01/20 05:50:38;;;;;;;;;;;;;;;5.85;85.15;98971.16;1755958;80;20608;-77
2022/01/20 05:53:05;;;;;;;;;;;;;;;5.77;84.98;98976.36;1755536;80;20138;-77
2022/01/20 05:55:31;;;;;;;;;;;;;;;6.00;83.79;98972.26;1760815;80;20148;-77
2022/01/20 05:57:56;;;;;;;;;;;;;;;5.96;84.29;98965.64;1756931;80;20172;-76
2022/01/20 06:00:24;;;;;;;;;;;;;;;6.29;83.43;98963.20;1757090;80;21951;-76
2022/01/20 06:05:33;;;;;;;;;;;;;;;5.96;84.71;98972.70;1753249;80;20178;-77
2022/01/20 06:07:59;;;;;;;;;;;;;;;5.95;84.54;98984.98;1755208;80;20149;-77
2022/01/20 06:10:24;;;;;;;;;;;;;;;5.35;86.71;99011.39;1758497;80;20222;-81
2022/01/20 06:12:50;;;;;;;;;;;;;;;5.02;88.60;99048.22;1760007;80;21081;-79
2022/01/20 06:15:16;;;;;;;;;;;;;;;5.49;83.86;99035.41;1753119;80;20157;-75
2022/01/20 06:17:41;;;;;;;;;;;;;;;5.24;82.37;99064.47;1756560;80;20167;-76
2022/01/20 06:20:08;;;;;;;;;;;;;;;5.36;79.74;99052.31;1749881;80;20727;-77
2022/01/20 06:22:33;;;;;;;;;;;;;;;5.33;77.05;99070.94;1754623;80;20988;-77
2022/01/20 06:24:59;;;;;;;;;;;;;;;5.31;76.42;99038.83;1754748;80;21176;-79
2022/01/20 06:27:25;;;;;;;;;;;;;;;4.68;76.71;99028.72;1752764;80;20146;-76
2022/01/20 06:29:50;;;;;;;;;;;;;;;4.87;73.51;99057.05;1759027;80;20188;-79
2022/01/20 06:32:16;;;;;;;;;;;;;;;4.81;72.53;99058.94;1756042;80;20167;-76
2022/01/20 06:34:41;;;;;;;;;;;;;;;4.86;71.59;99051.47;1752161;80;20210;-79
2022/01/20 06:37:07;;;;;;;;;;;;;;;4.80;72.28;99024.13;1758189;80;22700;-81
2022/01/20 06:39:32;;;;;;;;;;;;;;;4.77;71.56;99028.80;1755875;80;20157;-79
2022/01/20 06:41:58;;;;;;;;;;;;;;;5.15;69.95;99009.41;1753421;80;21393;-79
2022/01/20 06:44:25;;;;;;;;;;;;;;;5.17;70.39;99004.03;1748246;80;20156;-80
2022/01/20 06:46:51;;;;;;;;;;;;;;;5.06;70.41;99025.20;1743250;80;20225;-80
2022/01/20 06:49:17;;;;;;;;;;;;;;;4.96;70.13;99009.08;1727294;81;21895;-79
2022/01/20 06:51:44;;;;;;;;;;;;;;;4.60;71.63;99009.02;1747183;80;20822;-79
2022/01/20 06:54:10;;;;;;;;;;;;;;;4.82;71.60;99011.71;1726139;81;20148;-79
2022/01/20 06:56:36;;;;;;;;;;;;;;;5.00;70.38;99007.81;1742221;81;20211;-77
2022/01/20 06:59:01;;;;;;;;;;;;;;;4.98;70.57;98999.27;1738266;81;20118;-79
2022/01/20 07:01:27;;;;;;;;;;;;;;;4.87;70.85;99017.00;1745681;81;21075;-78
2022/01/20 07:03:52;;;;;;;;;;;;;;;4.36;71.17;99008.73;1741166;81;20157;-78
2022/01/20 07:06:18;;;;;;;;;;;;;;;4.66;70.63;99021.52;1740724;81;20169;-79
2022/01/20 07:08:43;;;;;;;;;;;;;;;4.80;70.48;99016.73;1742569;81;20137;-80
2022/01/20 07:11:09;;;;;;;;;;;;;;;4.73;69.67;99014.39;1737985;81;20169;-79
2022/01/20 07:13:35;;;;;;;;;;;;;;;4.71;69.56;99015.00;1737519;81;20512;-78
2022/01/20 07:16:02;;;;;;;;;;;;;;;4.68;69.86;99007.80;1748492;80;20129;-79
2022/01/20 07:18:27;;;;;;;;;;;;;;;4.57;70.64;99013.23;1741369;81;20150;-78
2022/01/20 07:20:53;;;;;;;;;;;;;;;4.94;69.12;99019.34;1744154;81;20146;-77
2022/01/20 07:23:19;;;;;;;;;;;;;;;4.80;69.83;99021.97;1751567;80;20232;-76
2022/01/20 07:25:44;;;;;;;;;;;;;;;4.86;69.33;99022.69;1765658;80;21147;-77
2022/01/20 07:28:10;;;;;;;;;;;;;;;5.13;68.72;99010.55;1758536;80;20204;-78
2022/01/20 07:30:36;;;;;;;;;;;;;;;4.95;68.40;99013.95;1751550;80;20180;-79
2022/01/20 07:33:03;;;;;;;;;;;;;;;4.78;68.45;99007.73;1768899;80;20574;-76
2022/01/20 07:35:29;;;;;;;;;;;;;;;4.91;68.22;99021.78;1764248;80;20181;-78
2022/01/20 07:37:54;;;;;;;;;;;;;;;5.21;67.35;99003.58;1759672;80;21562;-79
2022/01/20 07:40:20;;;;;;;;;;;;;;;5.27;67.41;98998.24;1763660;80;20135;-78
2022/01/20 07:42:45;;;;;;;;;;;;;;;5.17;67.27;98994.41;1768995;80;21135;-79
2022/01/20 07:45:11;;;;;;;;;;;;;;;5.27;66.79;98990.89;1756176;80;20143;-79
2022/01/20 07:47:37;;;;;;;;;;;;;;;5.19;66.33;99004.72;1762726;80;20509;-77
2022/01/20 07:50:03;;;;;;;;;;;;;;;4.96;66.40;99010.87;1768519;80;21084;-78
2022/01/20 07:52:28;;;;;;;;;;;;;;;5.00;66.00;99013.05;1772939;80;20515;-78
2022/01/20 07:54:54;;;;;;;;;;;;;;;5.29;64.72;98992.36;1768470;80;20130;-77
2022/01/20 07:57:19;;;;;;;;;;;;;;;5.12;64.81;98990.58;1769347;80;20492;-77
2022/01/20 07:59:45;;;;;;;;;;;;;;;5.11;64.76;98996.31;1763529;80;20219;-78
2022/01/20 08:02:11;;;;;;;;;;;;;;;5.21;64.34;98993.61;1755052;80;21155;-77
2022/01/20 08:04:36;;;;;;;;;;;;;;;5.21;64.08;98981.34;1760997;80;20204;-77
2022/01/20 08:07:02;;;;;;;;;;;;;;;5.28;64.10;98985.47;1765194;80;20330;-77
2022/01/20 08:09:28;;;;;;;;;;;;;;;5.42;63.11;98976.75;1762726;80;20266;-77
2022/01/20 08:11:53;;;;;;;;;;;;;;;5.47;62.49;99003.30;1765980;80;20421;-77
2022/01/20 08:14:19;;;;;;;;;;;;;;;5.77;62.29;98985.52;1758444;80;21093;-77
2022/01/20 08:16:44;;;;;;;;;;;;;;;5.38;62.60;98994.08;1765402;80;20145;-76
2022/01/20 08:19:10;;;;;;;;;;;;;;;5.36;62.52;98993.88;1753938;80;20456;-78
2022/01/20 08:21:35;;;;;;;;;;;;;;;5.75;61.97;98973.39;1765692;80;20149;-77
2022/01/20 08:24:01;;;;;;;;;;;;;;;5.25;62.72;98982.34;1766065;80;20115;-76
2022/01/20 08:26:27;;;;;;;;;;;;;;;5.23;63.57;99007.36;1764493;80;21170;-75
2022/01/20 08:28:52;;;;;;;;;;;;;;;5.57;63.59;98981.78;1769220;80;20175;-76
2022/01/20 08:31:18;;;;;;;;;;;;;;;5.71;63.35;98975.98;1761276;80;20156;-75
2022/01/20 08:33:43;;;;;;;;;;;;;;;6.17;62.53;98947.42;1764880;80;20121;-77
2022/01/20 08:36:09;;;;;;;;;;;;;;;5.85;63.54;98945.77;1765415;80;20138;-77
2022/01/20 08:38:34;;;;;;;;;;;;;;;5.75;64.30;98952.44;1766481;80;21189;-76
2022/01/20 08:41:00;;;;;;;;;;;;;;;5.44;65.03;98957.78;1766752;80;20784;-78
2022/01/20 08:43:26;;;;;;;;;;;;;;;5.65;65.07;98939.92;1766549;80;20145;-77
2022/01/20 08:45:51;;;;;;;;;;;;;;;5.39;65.81;98911.95;1766151;80;21033;-76
2022/01/20 08:48:17;;;;;;;;;;;;;;;5.34;65.77;98929.89;1763546;80;20127;-78
2022/01/20 08:50:43;;;;;;;;;;;;;;;5.38;66.38;98928.63;1766039;80;21093;-78
2022/01/20 08:53:08;;;;;;;;;;;;;;;5.36;66.33;98980.33;1756703;80;20458;-77
2022/01/20 08:55:35;;;;;;;;;;;;;;;5.11;65.61;98923.50;1764084;80;20293;-76
2022/01/20 08:58:01;;;;;;;;;;;;;;;5.30;65.94;98980.92;1763670;80;20166;-78
2022/01/20 09:00:29;;;;;;;;;;;;;;;5.35;65.42;98926.31;1766092;80;20139;-78
2022/01/20 09:02:54;;;;;;;;;;;;;;;5.57;64.90;98917.63;1761424;80;20198;-78
2022/01/20 09:05:20;;;;;;;;;;;;;;;5.42;64.82;99005.05;1764186;80;20137;-77
2022/01/20 09:07:45;;;;;;;;;;;;;;;5.49;63.81;98954.23;1761760;80;20259;-76
2022/01/20 09:10:18;;;;;;;;;;;;;;;5.70;63.38;98956.02;1764663;80;20461;-76
2022/01/20 09:15:27;;;;;;;;;;;;;;;5.96;62.80;98961.71;1764512;80;20133;-75
2022/01/20 09:17:48;;;;;;;;;;;;;;;5.97;61.97;98943.74;1700196;80;20125;-77
2022/01/20 09:20:14;;;;;;;;;;;;;;;5.58;61.44;98963.80;1761180;80;21085;-76
2022/01/20 09:22:39;;;;;;;;;;;;;;;5.70;60.90;98957.33;1763368;80;20244;-78
2022/01/20 09:25:06;;;;;;;;;;;;;;;5.53;61.15;98959.48;1749634;80;20573;-78
2022/01/20 09:27:31;;;;;;;;;;;;;;;5.78;59.77;98944.77;1758529;80;21225;-77
2022/01/20 09:29:57;;;;;;;;;;;;;;;5.56;59.47;98955.25;1758184;80;20545;-80
2022/01/20 09:32:25;;;;;;;;;;;;;;;5.50;57.87;98956.70;1754034;80;20864;-78
2022/01/20 09:34:50;;;;;;;;;;;;;;;5.38;56.54;98972.32;1755338;80;20108;-77
2022/01/20 09:37:15;;;;;;;;;;;;;;;5.30;55.03;98973.08;1753017;80;20188;-77
2022/01/20 09:39:41;;;;;;;;;;;;;;;5.27;54.81;98981.23;1753658;80;21955;-77
2022/01/20 09:42:07;;;;;;;;;;;;;;;5.23;54.35;98997.38;1763592;80;20120;-78
2022/01/20 09:44:33;;;;;;;;;;;;;;;5.52;54.03;98934.30;1761689;80;20276;-80
2022/01/20 09:46:58;;;;;;;;;;;;;;;5.58;53.45;98925.33;1761369;79;20931;-77
2022/01/20 09:49:24;;;;;;;;;;;;;;;5.39;52.94;98923.73;1762683;80;20168;-74
2022/01/20 09:51:49;;;;;;;;;;;;;;;5.29;51.86;98937.39;1764760;80;21106;-80
2022/01/20 09:54:15;;;;;;;;;;;;;;;5.17;51.17;98922.91;1754102;80;20141;-78
2022/01/20 09:56:44;;;;;;;;;;;;;;;5.42;51.10;98924.39;1757211;79;20148;-77
2022/01/20 09:59:08;;;;;;;;;;;;;;;5.15;51.72;98943.17;1755888;79;20591;-77
2022/01/20 10:01:41;;;;;;;;;;;;;;;4.95;52.85;98959.02;1754715;79;20171;-77
2022/01/20 10:04:24;;;;;;;;;;;;;;;4.37;55.09;98973.30;1759798;80;20850;-76
2022/01/20 10:06:58;;;;;;;;;;;;;;;4.61;54.34;98976.66;1764422;80;20257;-76
2022/01/20 10:09:30;;;;;;;;;;;;;;;4.55;56.15;98941.95;1760222;80;20390;-76
2022/01/20 10:11:56;;;;;;;;;;;;;;;4.07;58.41;98992.67;1760545;80;20228;-77
2022/01/20 10:14:21;;;;;;;;;;;;;;;4.22;58.60;98945.51;1756307;80;20183;-77
2022/01/20 10:16:47;;;;;;;;;;;;;;;4.61;57.84;98904.75;1761920;79;20790;-79
2022/01/20 10:19:27;;;;;;;;;;;;;;;4.41;57.63;98920.23;1762366;80;20444;-78
2022/01/20 10:21:52;;;;;;;;;;;;;;;4.26;57.08;98943.45;1759477;80;20169;-79
2022/01/20 10:24:18;;;;;;;;;;;;;;;4.62;56.97;98937.78;1760648;80;20118;-77
2022/01/20 10:26:44;;;;;;;;;;;;;;;4.85;56.35;98929.02;1762868;80;20155;-78
2022/01/20 10:29:14;;;;;;;;;;;;;;;4.62;56.43;98913.44;1758099;80;21975;-79
2022/01/20 10:31:51;;;;;;;;;;;;;;;4.48;56.70;98927.84;1729937;79;38636;-78
2022/01/20 10:34:35;;;;;;;;;;;;;;;4.38;56.74;98928.38;1755041;80;20475;-77
2022/01/20 10:37:14;;;;;;;;;;;;;;;4.62;55.83;98929.95;1761146;80;20155;-76
2022/01/20 10:39:43;;;;;;;;;;;;;;;4.54;55.16;98984.77;1760178;79;20552;-77
2022/01/20 10:42:14;;;;;;;;;;;;;;;4.67;55.22;98925.08;1757012;79;21367;-76
2022/01/20 10:44:50;;;;;;;;;;;;;;;4.64;55.25;98938.45;1749500;80;20145;-76
2022/01/20 10:47:21;;;;;;;;;;;;;;;4.89;54.81;98887.68;1762445;80;20283;-75
2022/01/20 10:49:46;;;;;;;;;;;;;;;4.42;55.18;98910.13;1753717;80;20624;-75
2022/01/20 10:52:13;;;;;;;;;;;;;;;4.33;55.07;98901.87;1761564;80;20147;-77
2022/01/20 10:54:43;;;;;;;;;;;;;;;4.41;54.51;98886.27;1762119;79;21099;-79
2022/01/20 10:57:10;;;;;;;;;;;;;;;4.48;53.94;98912.16;1757814;80;20219;-76
2022/01/20 10:59:54;;;;;;;;;;;;;;;4.27;53.44;98904.11;1755299;80;20237;-78
2022/01/20 11:02:22;;;;;;;;;;;;;;;4.20;53.09;98906.14;1758682;80;20917;-78
2022/01/20 11:04:48;;;;;;;;;;;;;;;4.28;53.53;98917.48;1759493;79;20230;-78
2022/01/20 11:07:13;;;;;;;;;;;;;;;4.25;54.12;98920.39;1764133;80;21894;-77
2022/01/20 11:09:43;;;;;;;;;;;;;;;4.00;54.56;98891.05;1759523;80;20458;-77
2022/01/20 11:12:08;;;;;;;;;;;;;;;4.17;54.26;98899.91;1759473;80;20109;-76
2022/01/20 11:14:34;;;;;;;;;;;;;;;4.16;53.77;98906.89;1756797;80;20177;-77
2022/01/20 11:17:00;;;;;;;;;;;;;;;4.42;53.99;98885.30;1758275;80;20225;-79
2022/01/20 11:19:26;;;;;;;;;;;;;;;4.30;54.30;98897.28;1754174;79;21193;-79
2022/01/20 11:21:52;;;;;;;;;;;;;;;4.15;54.87;98896.13;1766901;80;20216;-79
2022/01/20 11:24:19;;;;;;;;;;;;;;;4.62;54.76;98886.80;1765464;80;20307;-78
2022/01/20 11:26:52;;;;;;;;;;;;;;;4.15;55.32;98897.44;1758131;79;20187;-81
2022/01/20 11:29:18;;;;;;;;;;;;;;;3.95;56.63;98910.58;1757464;80;20173;-76
2022/01/20 11:31:43;;;;;;;;;;;;;;;4.20;56.76;98875.60;1763259;80;21090;-77
2022/01/20 11:34:17;;;;;;;;;;;;;;;4.17;56.80;98887.65;1759721;79;20773;-78
2022/01/20 11:36:42;;;;;;;;;;;;;;;3.82;57.89;98908.77;1755409;80;20184;-78
2022/01/20 11:39:08;;;;;;;;;;;;;;;4.12;57.80;98931.69;1751419;80;20129;-76
2022/01/20 11:41:46;;;;;;;;;;;;;;;4.29;57.73;98890.40;1761190;80;20196;-77
2022/01/20 11:44:12;;;;;;;;;;;;;;;4.26;58.27;98890.69;1755841;79;20191;-76
2022/01/20 11:46:40;;;;;;;;;;;;;;;4.32;59.59;98881.45;1762947;80;20221;-78
2022/01/20 11:49:08;;;;;;;;;;;;;;;4.08;60.55;98902.89;1764283;80;20154;-76
2022/01/20 11:51:50;;;;;;;;;;;;;;;4.37;60.14;98884.93;1764333;80;20173;-76
2022/01/20 11:54:26;;;;;;;;;;;;;;;4.00;62.50;98932.84;1760492;79;20167;-76
2022/01/20 11:57:03;;;;;;;;;;;;;;;4.08;63.88;98937.66;1759545;80;21224;-77
2022/01/20 11:59:39;;;;;;;;;;;;;;;3.85;66.84;98895.92;1761022;80;20210;-79
2022/01/20 12:02:04;;;;;;;;;;;;;;;4.10;66.75;98888.73;1749249;80;20179;-81
2022/01/20 12:04:34;;;;;;;;;;;;;;;4.23;66.42;98883.14;1756137;80;20116;-80
2022/01/20 12:07:00;;;;;;;;;;;;;;;3.91;64.18;98934.02;1761361;80;20205;-79
2022/01/20 12:09:33;;;;;;;;;;;;;;;4.29;60.79;98895.63;1758743;80;21117;-81
2022/01/20 12:11:59;;;;;;;;;;;;;;;3.99;59.38;98920.73;1749348;80;20245;-82
2022/01/20 12:14:32;;;;;;;;;;;;;;;4.16;58.25;98901.67;1761370;80;20161;-80
2022/01/20 12:17:03;;;;;;;;;;;;;;;4.61;57.71;98896.91;1761564;80;20501;-80
2022/01/20 12:19:29;;;;;;;;;;;;;;;4.41;58.30;98911.09;1756438;80;20144;-78
2022/01/20 12:21:54;;;;;;;;;;;;;;;4.12;59.82;98923.36;1765321;80;21078;-78
2022/01/20 12:24:20;;;;;;;;;;;;;;;4.07;63.02;98935.20;1758050;80;20782;-83
2022/01/20 12:26:46;;;;;;;;;;;;;;;3.68;62.44;98920.98;1755944;80;20325;-76
2022/01/20 12:29:12;;;;;;;;;;;;;;;3.76;61.86;98934.17;1755774;80;20208;-78
2022/01/20 12:31:49;;;;;;;;;;;;;;;3.89;61.40;98926.83;1758426;80;20203;-77
2022/01/20 12:34:15;;;;;;;;;;;;;;;3.93;60.17;98979.59;1728264;80;22497;-78
2022/01/20 12:36:43;;;;;;;;;;;;;;;3.86;60.62;98934.94;1760448;80;20283;-78
2022/01/20 12:39:08;;;;;;;;;;;;;;;4.00;60.30;98948.02;1743474;80;20665;-78
2022/01/20 12:41:34;;;;;;;;;;;;;;;4.31;59.22;98943.33;1746134;80;20191;-77
2022/01/20 12:44:06;;;;;;;;;;;;;;;4.25;58.88;98907.33;1760329;80;20177;-77
2022/01/20 12:46:36;;;;;;;;;;;;;;;4.13;57.70;98934.16;1763939;80;20152;-77
2022/01/20 12:49:13;;;;;;;;;;;;;;;4.03;56.51;98926.02;1761380;80;20938;-76
2022/01/20 12:51:42;;;;;;;;;;;;;;;4.31;55.52;98937.30;1760432;80;20082;-77
2022/01/20 12:54:13;;;;;;;;;;;;;;;4.31;54.84;98922.42;1761820;80;20871;-78
2022/01/20 12:56:44;;;;;;;;;;;;;;;4.03;54.28;98942.52;1759140;80;20503;-77
2022/01/20 12:59:11;;;;;;;;;;;;;;;4.21;54.49;98947.80;1760944;80;21146;-77
2022/01/20 13:01:38;;;;;;;;;;;;;;;4.02;54.42;98966.97;1750925;80;20352;-77
2022/01/20 13:04:05;;;;;;;;;;;;;;;4.08;55.36;98935.55;1758922;80;20199;-78
2022/01/20 13:06:32;;;;;;;;;;;;;;;4.08;56.06;98926.41;1762873;80;20654;-79
2022/01/20 13:09:05;;;;;;;;;;;;;;;3.99;56.19;98944.25;1757703;80;20534;-76
2022/01/20 13:11:41;;;;;;;;;;;;;;;3.85;57.37;98940.31;1757672;80;21275;-79
2022/01/20 13:14:05;;;;;;;;;;;;;;;3.81;57.79;98950.23;1757965;80;20627;-78
2022/01/20 13:16:32;;;;;;;;;;;;;;;3.69;58.09;98929.98;1762043;80;20152;-77
2022/01/20 13:19:02;;;;;;;;;;;;;;;4.07;57.60;98966.55;1761707;80;20217;-77
2022/01/20 13:21:36;;;;;;;;;;;;;;;3.95;58.59;98962.00;1758744;80;20161;-79
2022/01/20 13:24:03;;;;;;;;;;;;;;;3.72;59.43;98983.22;1757032;80;21130;-78
2022/01/20 13:26:29;;;;;;;;;;;;;;;3.65;60.41;98943.46;1752876;80;20130;-78
2022/01/20 13:29:03;;;;;;;;;;;;;;;3.94;59.77;98936.34;1751433;80;20158;-78
2022/01/20 13:31:29;;;;;;;;;;;;;;;3.38;63.46;98965.91;1753808;80;20172;-79
2022/01/20 13:33:54;;;;;;;;;;;;;;;3.27;72.51;98963.45;1757646;80;20170;-81
2022/01/20 13:36:22;;;;;;;;;;;;;;;2.80;75.82;98966.27;1754110;80;21165;-80
2022/01/20 13:38:55;;;;;;;;;;;;;;;2.66;77.85;98981.81;1756076;80;20179;-79
2022/01/20 13:41:20;;;;;;;;;;;;;;;2.88;77.07;98974.70;1746108;80;20462;-80
2022/01/20 13:46:31;;;;;;;;;;;;;;;2.68;77.78;98981.19;1751954;80;20125;-81
2022/01/20 13:49:10;;;;;;;;;;;;;;;3.00;76.44;99002.80;1759877;80;21141;-78
2022/01/20 13:51:36;;;;;;;;;;;;;;;2.66;77.98;98983.11;1756097;80;20157;-80
2022/01/20 13:54:02;;;;;;;;;;;;;;;2.32;81.39;98968.30;1756009;80;20275;-81
2022/01/20 13:56:29;;;;;;;;;;;;;;;2.45;83.45;98958.44;1758684;80;20182;-78
2022/01/20 13:59:04;;;;;;;;;;;;;;;2.21;82.97;98989.23;1755796;80;20122;-77
2022/01/20 14:01:30;;;;;;;;;;;;;;;2.17;82.92;98950.89;1755043;80;22094;-77